createdAt,value
2019-02-28T00:01:15.435Z,20.23
2019-02-28T00:03:47.069Z,15.55
2019-02-28T00:06:16.265Z,13.68
2019-02-28T00:08:54.440Z,15.55
2019-02-28T00:11:23.667Z,16.30
2019-02-28T00:13:56.018Z,13.00
2019-02-28T00:16:23.836Z,15.80
2019-02-28T00:18:52.976Z,14.10
2019-02-28T00:21:22.202Z,13.35
2019-02-28T00:23:56.389Z,20.30
2019-02-28T00:26:22.265Z,17.05
2019-02-28T00:28:51.404Z,21.05
2019-02-28T00:31:20.646Z,18.00
2019-02-28T00:34:10.118Z,16.55
2019-02-28T00:36:39.351Z,16.50
2019-02-28T00:39:08.571Z,15.95
2019-02-28T00:41:43.209Z,16.93
2019-02-28T00:44:08.693Z,14.55
2019-02-28T00:46:37.900Z,16.55
2019-02-28T00:49:07.031Z,15.10
2019-02-28T00:55:38.991Z,20.45
2019-02-28T00:58:08.149Z,21.95
2019-02-28T01:00:38.177Z,17.20
2019-02-28T01:03:07.474Z,18.52
2019-02-28T01:05:37.291Z,17.60
2019-02-28T01:08:06.569Z,17.12
2019-02-28T01:10:39.275Z,20.48
2019-02-28T01:13:06.814Z,14.90
2019-02-28T01:15:36.020Z,18.67
2019-02-28T01:18:05.296Z,17.20
2019-02-28T01:20:34.563Z,21.68
2019-02-28T01:23:03.696Z,20.95
2019-02-28T01:25:32.896Z,16.67
2019-02-28T01:28:02.133Z,17.82
2019-02-28T01:30:32.394Z,13.32
2019-02-28T01:33:01.532Z,19.05
2019-02-28T01:36:00.905Z,20.80
2019-02-28T01:38:35.831Z,17.25
2019-02-28T01:41:08.362Z,19.48
2019-02-28T01:43:38.796Z,18.48
2019-02-28T01:46:27.265Z,19.55
2019-02-28T01:49:39.052Z,19.75
2019-02-28T01:52:14.599Z,15.85
2019-02-28T01:55:04.795Z,19.25
2019-02-28T01:57:33.980Z,18.65
2019-02-28T02:00:03.284Z,16.77
2019-02-28T02:02:32.423Z,18.42
2019-02-28T02:05:01.745Z,15.83
2019-02-28T02:07:33.298Z,16.73
2019-02-28T02:10:01.868Z,17.95
2019-02-28T02:12:31.764Z,18.48
2019-02-28T02:15:01.795Z,15.13
2019-02-28T02:17:32.233Z,17.17
2019-02-28T02:20:07.471Z,19.90
2019-02-28T02:22:36.591Z,22.13
2019-02-28T02:25:54.387Z,19.05
2019-02-28T02:28:44.583Z,18.30
2019-02-28T02:31:15.293Z,18.67
2019-02-28T02:33:52.711Z,21.27
2019-02-28T02:36:22.220Z,23.25
2019-02-28T02:38:53.126Z,19.00
2019-02-28T02:41:34.655Z,20.88
2019-02-28T02:44:07.369Z,20.92
2019-02-28T02:46:36.616Z,22.37
2019-02-28T02:49:05.792Z,22.07
2019-02-28T02:51:34.926Z,19.00
2019-02-28T02:54:04.165Z,21.20
2019-02-28T02:56:40.712Z,17.55
2019-02-28T02:59:04.204Z,17.40
2019-02-28T03:01:35.142Z,18.50
2019-02-28T03:04:08.104Z,18.98
2019-02-28T03:06:39.513Z,16.37
2019-02-28T03:09:12.397Z,16.73
2019-02-28T03:12:05.969Z,16.42
2019-02-28T03:14:51.414Z,16.70
2019-02-28T03:17:25.971Z,17.07
2019-02-28T03:20:18.467Z,19.07
2019-02-28T03:23:02.210Z,15.32
2019-02-28T03:25:29.891Z,15.53
2019-02-28T03:28:01.219Z,15.65
2019-02-28T03:30:33.994Z,21.97
2019-02-28T03:33:04.120Z,16.70
2019-02-28T03:35:43.461Z,21.15
2019-02-28T03:38:15.873Z,16.37
2019-02-28T03:40:46.515Z,16.32
2019-02-28T03:43:16.036Z,23.40
2019-02-28T03:45:48.769Z,16.57
2019-02-28T03:48:18.492Z,19.62
2019-02-28T03:50:48.793Z,19.77
2019-02-28T03:53:20.018Z,16.73
2019-02-28T03:55:49.272Z,26.97
2019-02-28T03:58:20.290Z,19.57
2019-02-28T04:00:50.548Z,17.35
2019-02-28T04:03:21.629Z,15.60
2019-02-28T04:05:50.933Z,16.70
2019-02-28T04:08:29.422Z,17.75
2019-02-28T04:10:55.909Z,16.37
2019-02-28T04:13:27.266Z,17.80
2019-02-28T04:16:08.346Z,20.68
2019-02-28T04:18:28.077Z,20.40
2019-02-28T04:20:57.542Z,20.50
2019-02-28T04:23:26.815Z,29.42
2019-02-28T04:25:57.006Z,16.90
2019-02-28T04:28:27.879Z,15.83
2019-02-28T04:30:57.025Z,16.15
2019-02-28T04:33:29.296Z,18.80
2019-02-28T04:36:00.626Z,16.05
2019-02-28T04:38:31.004Z,18.70
2019-02-28T04:41:03.568Z,19.73
2019-02-28T04:43:44.434Z,19.12
2019-02-28T04:46:17.225Z,19.48
2019-02-28T04:48:58.452Z,19.57
2019-02-28T04:51:27.599Z,17.20
2019-02-28T04:53:57.802Z,19.65
2019-02-28T04:56:28.723Z,18.40
2019-02-28T04:58:59.502Z,20.17
2019-02-28T05:01:39.295Z,17.70
2019-02-28T05:04:10.635Z,17.98
2019-02-28T05:06:39.758Z,21.75
2019-02-28T05:09:14.366Z,23.57
2019-02-28T05:11:44.385Z,19.40
2019-02-28T05:14:13.896Z,17.07
2019-02-28T05:16:46.945Z,39.53
2019-02-28T05:19:14.040Z,25.45
2019-02-28T05:21:44.531Z,24.18
2019-02-28T05:24:13.657Z,19.37
2019-02-28T05:26:43.953Z,30.30
2019-02-28T05:29:13.740Z,26.40
2019-02-28T05:31:42.973Z,17.35
2019-02-28T05:34:13.278Z,24.87
2019-02-28T05:36:43.140Z,20.37
2019-02-28T05:39:12.440Z,30.80
2019-02-28T05:41:41.743Z,23.38
2019-02-28T05:44:11.092Z,16.12
2019-02-28T05:46:40.496Z,19.32
2019-02-28T05:49:09.861Z,16.55
2019-02-28T05:51:39.140Z,26.65
2019-02-28T05:54:08.632Z,23.32
2019-02-28T05:56:46.649Z,13.55
2019-02-28T05:59:16.168Z,19.57
2019-02-28T06:01:46.994Z,17.77
2019-02-28T06:04:19.882Z,15.43
2019-02-28T06:10:56.030Z,18.90
2019-02-28T06:13:25.162Z,13.83
2019-02-28T06:15:54.300Z,14.43
2019-02-28T06:18:27.021Z,13.38
2019-02-28T06:20:54.344Z,15.23
2019-02-28T06:23:23.609Z,13.25
2019-02-28T06:25:55.775Z,13.55
2019-02-28T06:28:27.654Z,17.87
2019-02-28T06:31:00.074Z,15.05
2019-02-28T06:33:30.683Z,15.70
2019-02-28T06:35:59.594Z,19.07
2019-02-28T06:38:30.972Z,20.05
2019-02-28T06:41:00.191Z,18.95
2019-02-28T06:43:29.380Z,17.75
2019-02-28T06:45:58.513Z,16.87
2019-02-28T06:48:27.708Z,23.90
2019-02-28T06:50:56.817Z,16.55
2019-02-28T06:53:26.847Z,15.78
2019-02-28T06:55:58.593Z,17.32
2019-02-28T06:58:55.709Z,18.87
2019-02-28T07:01:24.914Z,14.03
2019-02-28T07:03:54.062Z,17.23
2019-02-28T07:06:23.352Z,20.75
2019-02-28T07:08:54.665Z,19.07
2019-02-28T07:11:23.780Z,20.35
2019-02-28T07:13:52.991Z,21.37
2019-02-28T07:16:22.126Z,20.30
2019-02-28T07:18:53.757Z,29.30
2019-02-28T07:21:23.118Z,22.73
2019-02-28T07:23:53.549Z,19.10
2019-02-28T07:26:25.972Z,26.48
2019-02-28T07:28:58.341Z,26.07
2019-02-28T07:31:28.731Z,21.95
2019-02-28T07:34:02.872Z,20.27
2019-02-28T07:36:32.129Z,25.97
2019-02-28T07:39:04.442Z,28.25
2019-02-28T07:41:32.207Z,27.82
2019-02-28T07:44:01.477Z,28.27
2019-02-28T07:46:30.629Z,25.92
2019-02-28T07:49:00.932Z,24.95
2019-02-28T07:51:30.898Z,28.00
2019-02-28T07:54:01.611Z,29.57
2019-02-28T07:56:31.110Z,27.95
2019-02-28T07:59:00.294Z,26.55
2019-02-28T08:01:30.839Z,38.65
2019-02-28T08:04:00.026Z,36.45
2019-02-28T08:06:29.189Z,37.33
2019-02-28T08:08:58.552Z,37.58
2019-02-28T08:11:27.778Z,36.53
2019-02-28T08:13:56.943Z,37.98
2019-02-28T08:16:26.225Z,39.00
2019-02-28T08:18:55.529Z,38.58
2019-02-28T08:21:24.751Z,39.50
2019-02-28T08:23:54.123Z,41.55
2019-02-28T08:26:23.326Z,42.60
2019-02-28T08:28:52.433Z,41.28
2019-02-28T08:31:21.704Z,39.20
2019-02-28T08:33:50.872Z,42.13
2019-02-28T08:36:20.089Z,38.83
2019-02-28T08:38:49.296Z,41.42
2019-02-28T08:41:18.516Z,43.80
2019-02-28T08:43:48.641Z,41.18
2019-02-28T08:46:17.959Z,37.28
2019-02-28T08:48:47.444Z,48.65
2019-02-28T08:51:18.608Z,41.23
2019-02-28T08:53:51.356Z,41.37
2019-02-28T08:56:18.693Z,40.78
2019-02-28T08:58:47.852Z,38.42
2019-02-28T09:01:17.169Z,46.58
2019-02-28T09:03:46.298Z,43.52
2019-02-28T09:06:15.535Z,37.13
2019-02-28T09:08:45.201Z,45.83
2019-02-28T09:11:14.519Z,46.00
2019-02-28T09:13:44.885Z,42.62
2019-02-28T09:16:16.235Z,42.67
2019-02-28T09:18:46.517Z,44.93
2019-02-28T09:21:21.803Z,45.85
2019-02-28T09:23:51.016Z,42.65
2019-02-28T09:26:21.153Z,43.38
2019-02-28T09:28:57.698Z,46.18
2019-02-28T09:31:38.667Z,43.78
2019-02-28T09:37:18.916Z,41.50
2019-02-28T09:40:09.350Z,43.98
2019-02-28T09:42:38.584Z,43.95
2019-02-28T09:45:13.620Z,45.17
2019-02-28T09:47:46.021Z,45.08
2019-02-28T09:50:22.542Z,46.30
2019-02-28T09:52:52.405Z,41.20
2019-02-28T09:55:22.137Z,39.18
2019-02-28T09:57:54.707Z,43.87
2019-02-28T10:00:28.593Z,39.15
2019-02-28T10:02:59.090Z,41.08
2019-02-28T10:05:28.617Z,45.58
2019-02-28T10:08:01.746Z,45.12
2019-02-28T10:10:28.881Z,47.33
2019-02-28T10:12:58.169Z,47.00
2019-02-28T10:15:27.733Z,47.55
2019-02-28T10:17:56.912Z,42.67
2019-02-28T10:20:28.298Z,39.08
2019-02-28T10:22:58.017Z,43.70
2019-02-28T10:25:27.382Z,51.83
2019-02-28T10:28:01.418Z,53.35
2019-02-28T10:30:32.061Z,49.77
2019-02-28T10:32:58.962Z,45.85
2019-02-28T10:35:28.462Z,48.52
2019-02-28T10:37:58.833Z,47.62
2019-02-28T10:40:28.350Z,50.05
2019-02-28T10:42:57.815Z,45.52
2019-02-28T10:45:27.826Z,43.48
2019-02-28T10:47:57.268Z,48.58
2019-02-28T10:50:32.167Z,44.98
2019-02-28T10:53:04.052Z,43.92
2019-02-28T10:55:29.307Z,53.55
2019-02-28T10:57:58.615Z,53.25
2019-02-28T11:00:32.831Z,46.45
2019-02-28T11:03:02.017Z,47.65
2019-02-28T11:05:32.395Z,54.10
2019-02-28T11:08:02.619Z,48.20
2019-02-28T11:10:35.489Z,46.08
2019-02-28T11:13:06.411Z,46.83
2019-02-28T11:15:35.929Z,42.60
2019-02-28T11:18:09.726Z,44.23
2019-02-28T11:20:39.547Z,45.88
2019-02-28T11:23:14.942Z,48.13
2019-02-28T11:25:44.475Z,50.33
2019-02-28T11:28:14.615Z,42.60
2019-02-28T11:30:46.339Z,52.78
2019-02-28T11:33:15.899Z,41.23
2019-02-28T11:35:45.231Z,46.90
2019-02-28T11:38:20.399Z,46.77
2019-02-28T11:40:46.041Z,49.70
2019-02-28T11:43:15.257Z,43.20
2019-02-28T11:45:45.514Z,41.50
2019-02-28T11:48:18.862Z,39.83
2019-02-28T11:50:45.823Z,43.75
2019-02-28T11:53:15.126Z,49.10
2019-02-28T11:55:44.783Z,44.65
2019-02-28T11:58:17.736Z,45.25
2019-02-28T12:00:45.165Z,44.50
2019-02-28T12:03:14.499Z,42.83
2019-02-28T12:05:43.880Z,54.18
2019-02-28T12:08:13.167Z,45.65
2019-02-28T12:10:42.434Z,51.75
2019-02-28T12:13:11.652Z,43.45
2019-02-28T12:15:40.868Z,42.08
2019-02-28T12:18:10.081Z,43.52
2019-02-28T12:20:39.369Z,46.42
2019-02-28T12:23:08.716Z,44.67
2019-02-28T12:25:39.536Z,46.53
2019-02-28T12:28:09.084Z,48.58
2019-02-28T12:30:40.225Z,47.03
2019-02-28T12:33:09.795Z,47.70
2019-02-28T12:35:40.650Z,45.35
2019-02-28T12:38:29.024Z,46.80
2019-02-28T12:40:49.484Z,57.35
2019-02-28T12:43:21.498Z,39.88
2019-02-28T12:45:50.747Z,62.08
2019-02-28T12:48:23.218Z,44.60
2019-02-28T12:50:53.092Z,45.63
2019-02-28T12:53:25.330Z,47.20
2019-02-28T12:55:54.586Z,49.18
2019-02-28T12:58:38.651Z,49.48
2019-02-28T13:01:03.764Z,46.73
2019-02-28T13:04:00.605Z,49.23
2019-02-28T13:07:24.248Z,67.58
2019-02-28T13:09:53.668Z,48.40
2019-02-28T13:12:22.847Z,50.83
2019-02-28T13:14:52.131Z,46.50
2019-02-28T13:17:21.409Z,50.63
2019-02-28T13:19:59.059Z,49.85
2019-02-28T13:22:30.092Z,48.02
2019-02-28T13:24:59.282Z,53.45
2019-02-28T13:27:29.269Z,50.58
2019-02-28T13:29:59.035Z,48.15
2019-02-28T13:32:28.267Z,55.30
2019-02-28T13:35:03.077Z,45.83
2019-02-28T13:38:35.706Z,51.80
2019-02-28T13:41:05.248Z,51.05
2019-02-28T13:47:32.500Z,54.65
2019-02-28T13:50:12.827Z,47.30
2019-02-28T13:52:42.128Z,46.60
2019-02-28T13:55:21.580Z,54.93
2019-02-28T13:57:50.812Z,59.48
2019-02-28T14:00:24.637Z,54.40
2019-02-28T14:02:58.689Z,51.75
2019-02-28T14:05:28.022Z,49.60
2019-02-28T14:07:57.408Z,51.60
2019-02-28T14:10:29.839Z,53.28
2019-02-28T14:12:58.230Z,53.45
2019-02-28T14:15:33.204Z,52.03
2019-02-28T14:18:02.896Z,55.80
2019-02-28T14:20:32.164Z,51.75
2019-02-28T14:23:01.532Z,56.80
2019-02-28T14:25:33.030Z,50.75
2019-02-28T14:28:02.316Z,50.45
2019-02-28T14:30:32.097Z,53.95
2019-02-28T14:33:16.197Z,54.53
2019-02-28T14:38:45.786Z,49.20
2019-02-28T14:41:37.103Z,56.23
2019-02-28T14:44:08.391Z,53.63
2019-02-28T14:46:37.626Z,50.25
2019-02-28T14:49:06.953Z,52.33
2019-02-28T14:51:37.156Z,57.75
2019-02-28T14:54:06.419Z,50.15
2019-02-28T14:56:39.601Z,54.60
2019-02-28T14:59:08.099Z,55.05
2019-02-28T15:01:37.597Z,58.65
2019-02-28T15:07:09.174Z,50.15
2019-02-28T15:09:38.429Z,58.40
2019-02-28T15:12:07.682Z,60.33
2019-02-28T15:14:36.959Z,53.98
2019-02-28T15:17:07.609Z,58.68
2019-02-28T15:19:38.426Z,60.03
2019-02-28T15:22:07.572Z,58.48
2019-02-28T15:24:36.783Z,56.02
2019-02-28T15:27:06.014Z,60.20
2019-02-28T15:29:35.208Z,55.80
2019-02-28T15:32:04.528Z,62.05
2019-02-28T15:34:33.744Z,59.65
2019-02-28T15:37:02.969Z,58.30
2019-02-28T15:39:32.219Z,55.80
2019-02-28T15:42:01.334Z,78.87
2019-02-28T15:44:30.704Z,56.92
2019-02-28T15:48:01.707Z,61.33
2019-02-28T15:50:30.576Z,62.00
2019-02-28T15:52:59.873Z,61.48
2019-02-28T15:55:29.383Z,58.83
2019-02-28T15:58:16.596Z,60.23
2019-02-28T16:00:46.036Z,60.75
2019-02-28T16:03:16.810Z,57.08
2019-02-28T16:05:46.129Z,60.10
2019-02-28T16:08:34.645Z,60.10
2019-02-28T16:11:07.083Z,58.58
2019-02-28T16:13:36.546Z,61.45
2019-02-28T16:16:05.864Z,59.25
2019-02-28T16:18:35.019Z,61.70
2019-02-28T16:21:07.364Z,70.00
2019-02-28T16:23:35.381Z,60.98
2019-02-28T16:26:05.347Z,72.08
2019-02-28T16:28:34.548Z,65.00
2019-02-28T16:31:06.319Z,59.93
2019-02-28T16:33:35.347Z,59.25
2019-02-28T16:36:04.576Z,75.78
2019-02-28T16:38:33.964Z,61.28
2019-02-28T16:41:03.232Z,62.20
2019-02-28T16:43:33.947Z,56.83
2019-02-28T16:46:03.311Z,59.93
2019-02-28T16:51:31.288Z,60.25
2019-02-28T16:54:00.618Z,72.35
2019-02-28T16:56:29.812Z,77.22
2019-02-28T16:59:00.681Z,57.78
2019-02-28T17:01:31.924Z,62.40
2019-02-28T17:04:01.126Z,70.60
2019-02-28T17:06:32.598Z,71.47
2019-02-28T17:09:19.668Z,62.53
2019-02-28T17:12:30.169Z,67.15
2019-02-28T17:14:59.358Z,63.48
2019-02-28T17:17:36.775Z,68.15
2019-02-28T17:21:16.895Z,73.50
2019-02-28T17:23:47.708Z,64.05
2019-02-28T17:26:53.189Z,63.52
2019-02-28T17:35:53.812Z,67.75
2019-02-28T17:38:18.873Z,69.27
2019-02-28T17:44:47.217Z,71.02
2019-02-28T17:56:03.897Z,71.35
2019-02-28T17:59:20.412Z,66.82
2019-02-28T18:02:07.925Z,70.22
2019-02-28T18:05:30.056Z,67.82
2019-02-28T18:08:37.741Z,62.17
2019-02-28T18:11:40.899Z,62.70
2019-02-28T18:14:41.650Z,80.60
2019-02-28T18:18:08.854Z,62.50
2019-02-28T18:21:33.102Z,60.85
2019-02-28T18:27:55.340Z,57.88
2019-02-28T18:31:05.717Z,67.50
2019-02-28T18:36:45.505Z,59.10
2019-02-28T18:39:14.801Z,73.62
2019-02-28T18:41:45.362Z,59.33
2019-02-28T18:44:14.628Z,59.75
2019-02-28T18:46:56.616Z,70.70
2019-02-28T18:50:26.996Z,62.10
2019-02-28T18:53:58.810Z,66.57
2019-02-28T19:29:51.002Z,66.30
2019-02-28T19:32:35.428Z,63.65
2019-02-28T19:55:30.788Z,58.95
2019-02-28T20:20:26.870Z,60.05
2019-02-28T20:23:01.852Z,61.70
2019-02-28T20:25:31.312Z,65.20
2019-02-28T20:28:00.789Z,59.85
2019-02-28T20:30:39.372Z,59.27
2019-02-28T20:33:54.503Z,63.83
2019-02-28T20:36:27.863Z,61.00
2019-02-28T20:38:58.372Z,64.75
2019-02-28T20:41:27.717Z,64.75
2019-02-28T20:48:20.595Z,63.60
2019-02-28T20:57:13.413Z,61.60
2019-02-28T20:59:50.229Z,64.32
2019-02-28T21:02:29.141Z,59.15
2019-02-28T21:05:05.657Z,62.90
2019-02-28T21:07:37.321Z,59.13
2019-02-28T21:13:51.431Z,59.23
2019-02-28T21:16:50.525Z,62.00
2019-02-28T21:24:47.421Z,67.42
2019-02-28T21:27:22.986Z,67.45
2019-02-28T21:29:52.658Z,62.78
2019-02-28T21:32:30.179Z,72.70
2019-02-28T21:36:41.928Z,70.45
2019-02-28T21:37:45.545Z,69.20
2019-02-28T21:40:18.477Z,73.40
2019-02-28T21:42:51.165Z,66.97
2019-02-28T21:45:25.206Z,68.02
2019-02-28T21:48:57.650Z,70.15
2019-02-28T21:51:38.044Z,75.60
2019-02-28T21:54:10.780Z,77.40
2019-02-28T21:56:45.417Z,71.15
2019-02-28T21:59:15.088Z,72.05
2019-02-28T22:01:50.619Z,69.60
2019-02-28T22:04:32.137Z,71.05
2019-02-28T22:07:04.792Z,78.17
2019-02-28T22:09:34.791Z,78.25
2019-02-28T22:14:50.023Z,76.35
2019-02-28T22:17:23.111Z,74.58
2019-02-28T22:19:58.049Z,79.65
2019-02-28T22:22:30.292Z,84.45
2019-02-28T22:25:04.856Z,79.25
2019-02-28T22:27:36.447Z,76.22
2019-02-28T22:30:25.586Z,75.95
2019-02-28T22:32:59.760Z,76.87
2019-02-28T22:36:10.407Z,78.20
2019-02-28T22:38:41.845Z,79.65
2019-02-28T22:41:12.585Z,74.72
2019-02-28T22:43:46.167Z,78.42
2019-02-28T22:46:21.178Z,85.22
2019-02-28T22:48:52.187Z,76.00
2019-02-28T22:51:24.750Z,75.30
2019-02-28T22:53:55.451Z,80.75
2019-02-28T22:56:30.297Z,70.92
2019-02-28T23:02:14.311Z,83.22
2019-02-28T23:07:33.943Z,87.15
2019-02-28T23:10:06.004Z,85.22
2019-02-28T23:12:39.778Z,92.53
2019-02-28T23:15:33.202Z,89.32
2019-02-28T23:18:04.516Z,80.17
2019-02-28T23:20:33.957Z,90.53
2019-02-28T23:23:03.530Z,84.05
2019-02-28T23:25:33.245Z,88.62
2019-02-28T23:29:14.978Z,78.33
2019-02-28T23:32:19.289Z,86.22
2019-02-28T23:34:52.639Z,87.22
2019-02-28T23:37:22.406Z,96.92
2019-02-28T23:39:55.614Z,96.42
2019-02-28T23:42:25.108Z,89.77
2019-02-28T23:45:56.277Z,79.77
2019-02-28T23:49:05.201Z,79.72
2019-02-28T23:51:34.894Z,81.35
